Clayton Williams Energy Inc (CWEI) Latest Bloomsberg Price


Mffais Ranking #53 Overall / #5 Industry
Industry: Exploration And Production

Number of Companies: 52 (Ranking #2267 Overall/#58 Industry)
Inflow: $ 188,551 (K) (Ranking #620 Overall/#26 Industry)
Outflow: $ -35,121 (K)
Mffais Flow: $ 153,430 (K) (Ranking #53 Overall/#5 Industry)


Receive a FREE weekly executive review of stocks moving into the top 10, taking the top industy spot or moving up within their industry. Sent directly to your Inbox every Saturday. Sign up today and get last week's review immediately sent to you.

We value and respect your privacy. Please read our Terms and Conditions which states our firm commitment to your privacy. Your email address will not be shared with a third party, nor will it be sold or used for purposes other than subscription for the weekly review.

Owner CPOR Shares Action Qty Chg Invested (K) Total Current Value (K)
Ares Management Llc 2016-09-30 6,093,505 Added More 5,051,100 $ 167,848 $ 202,487
Key Group Holdings Cayman Ltd 2016-09-30 397,246 New Holding 397,246 $ 13,200 $ 13,200
Kayne Anderson Capital Advisors Lp 2016-09-30 60,600 New Holding 60,600 $ 2,013 $ 2,013
Encompass Capital Advisors Llc 2016-09-30 495,447 Added More 36,902 $ 1,226 $ 16,463
Lyon Street Capital Llc 2016-09-30 34,000 New Holding 34,000 $ 1,129 $ 1,129
Prescott Group Capital Management L L C 2016-09-30 23,200 New Holding 23,200 $ 770 $ 770
Gsa Capital Partners Llp 2016-09-30 14,495 New Holding 14,495 $ 481 $ 481
Parkwood Llc 2016-09-30 10,200 New Holding 10,200 $ 338 $ 338
Kcg Holdings Inc 2016-09-30 9,720 New Holding 9,720 $ 322 $ 322
Raymond James Associates 2016-09-30 7,300 New Holding 7,300 $ 242 $ 242
Woodstock Corp 2016-09-30 6,526 New Holding 6,526 $ 216 $ 216
Prospector Partners Llc 2016-09-30 4,700 New Holding 4,700 $ 156 $ 156
Tudor Investment Corp Et Al 2016-09-30 3,462 New Holding 3,462 $ 115 $ 115
Squarepoint Ops Llc 2016-09-30 2,812 New Holding 2,812 $ 93 $ 93
Northern Trust Corp 2016-09-30 69,398 Added More 2,590 $ 86 $ 2,306
Trexquant Investment Lp 2016-09-30 2,466 New Holding 2,466 $ 81 $ 81
Creative Planning 2016-09-30 2,000 New Holding 2,000 $ 66 $ 66
Sg Americas Securities Llc 2016-09-30 1,886 New Holding 1,886 $ 62 $ 62
Rhumbline Advisers 2016-09-30 9,664 Added More 1,000 $ 33 $ 321
Quantbot Technologies Lp 2016-09-30 671 New Holding 671 $ 22 $ 22
Msi Financial Services Inc 2016-09-30 400 New Holding 400 $ 13 $ 13
Walleye Trading Llc 2016-09-30 355 New Holding 355 $ 11 $ 11
Teachers Advisors Inc 2016-09-30 9,922 Added More 188 $ 6 $ 329
Blackrock Investment Management Llc 2016-09-30 25,794 Added More 133 $ 4 $ 857
California State Teachers Retirement System 2016-09-30 12,624 Added More 100 $ 3 $ 419
Blackrock Inc 2016-09-30 1,794 Added More 78 $ 2 $ 59
American International Group Inc 2016-09-30 3,438 Added More 5 $ 0 $ 114
Nationwide Fund Advisors 2016-09-30 6,750 No Change 0 $ 0 $ 224
New Harbor Financial Group Llc 2016-09-30 20 No Change 0 $ 0 $ 0
Bridgeway Capital Management Inc 2016-09-30 134,600 No Change 0 $ 0 $ 4,472
Ct Financial Advisors Llc 2016-09-30 360 No Change 0 $ 0 $ 11
Legal General Group Plc 2016-09-30 816 No Change 0 $ 0 $ 27
First Financial Corp In 2016-09-30 2,000 No Change 0 $ 0 $ 66
New York State Common Retirement Fund 2016-09-30 6,300 No Change 0 $ 0 $ 209
Pnc Financial Services Group Inc 2016-09-30 0 Sold All -1,037 $ -34 $ 0
Springbok Capital Management Llc 2016-09-30 0 Sold All -1,220 $ -40 $ 0
Nisa Investment Advisors Llc 2016-09-30 0 Sold All -1,500 $ -49 $ 0
Emerald Acquisition Ltd 2016-09-30 14,444 Sold Some -1,989 $ -66 $ 479
Wfg Advisors Lp 2016-09-30 0 Sold All -2,561 $ -85 $ 0
Dimensional Fund Advisors Lp 2016-09-30 450,785 Sold Some -3,188 $ -105 $ 14,979
Tower Research Capital Llc Trc 2016-09-30 0 Sold All -3,439 $ -114 $ 0
Thrivent Financial For Lutherans 2016-09-30 54,231 Sold Some -5,840 $ -194 $ 1,802
Sippican Capital Advisors 2016-09-30 39,105 Sold Some -5,995 $ -199 $ 1,299
Horizon Kinetics Llc 2016-09-30 4,912 Sold Some -11,040 $ -366 $ 163
Fisher Asset Management Llc 2016-09-30 35,364 Sold Some -13,617 $ -452 $ 1,175
Shinko Asset Management Co Ltd 2016-09-30 35,364 Sold Some -13,617 $ -452 $ 1,175
Parametric Portfolio Associates Llc 2016-09-30 44,192 Sold Some -22,319 $ -741 $ 1,468
Eam Investors Llc 2016-09-30 49,551 Sold Some -43,843 $ -1,456 $ 1,646
D L Carlson Investment Group Inc 2016-09-30 0 Sold All -67,940 $ -2,257 $ 0
Grt Capital Partners L L C 2016-09-30 651,651 Sold Some -138,673 $ -4,608 $ 21,654
Fir Tree Inc 2016-09-30 198,003 Sold Some -269,092 $ -8,941 $ 6,579
Eidelman Virant Capital 2016-09-30 0 Sold All -450,000 $ -14,953 $ 0